sensor_id;sensor_type;location;lat;lon;timestamp;temperature;humidity
44833;DHT22;30569;51.252;9.830;2023-03-14T00:11:57;8.60;99.90
44833;DHT22;30569;51.252;9.830;2023-03-14T00:14:23;8.70;99.90
44833;DHT22;30569;51.252;9.830;2023-03-14T00:16:48;9.20;99.90
44833;DHT22;30569;51.252;9.830;2023-03-14T00:19:14;8.90;99.90
44833;DHT22;30569;51.252;9.830;2023-03-14T00:21:40;8.80;99.90
44833;DHT22;30569;51.252;9.830;2023-03-14T00:24:07;8.70;99.90
44833;DHT22;30569;51.252;9.830;2023-03-14T00:26:33;9.00;99.90
44833;DHT22;30569;51.252;9.830;2023-03-14T00:33:52;9.10;99.90
44833;DHT22;30569;51.252;9.830;2023-03-14T00:38:47;9.20;99.90
44833;DHT22;30569;51.252;9.830;2023-03-14T00:41:18;9.20;99.90
44833;DHT22;30569;51.252;9.830;2023-03-14T00:43:44;9.10;99.90
44833;DHT22;30569;51.252;9.830;2023-03-14T00:51:03;9.40;99.90
44833;DHT22;30569;51.252;9.830;2023-03-14T01:03:14;9.30;99.90
44833;DHT22;30569;51.252;9.830;2023-03-14T01:08:06;9.30;99.90
44833;DHT22;30569;51.252;9.830;2023-03-14T01:17:51;9.50;99.90
44833;DHT22;30569;51.252;9.830;2023-03-14T01:20:17;9.20;99.90
44833;DHT22;30569;51.252;9.830;2023-03-14T01:22:43;9.40;99.90
44833;DHT22;30569;51.252;9.830;2023-03-14T01:25:12;9.30;99.90
44833;DHT22;30569;51.252;9.830;2023-03-14T01:30:04;9.40;99.90
44833;DHT22;30569;51.252;9.830;2023-03-14T01:32:30;9.20;99.90
44833;DHT22;30569;51.252;9.830;2023-03-14T01:42:15;9.40;99.90
44833;DHT22;30569;51.252;9.830;2023-03-14T01:47:51;9.50;99.90
44833;DHT22;30569;51.252;9.830;2023-03-14T01:50:17;9.20;99.90
44833;DHT22;30569;51.252;9.830;2023-03-14T01:52:46;9.40;99.90
44833;DHT22;30569;51.252;9.830;2023-03-14T01:55:16;9.30;99.90
44833;DHT22;30569;51.252;9.830;2023-03-14T01:57:49;9.20;99.90
44833;DHT22;30569;51.252;9.830;2023-03-14T02:00:18;9.40;99.90
44833;DHT22;30569;51.252;9.830;2023-03-14T02:02:47;9.60;99.90
44833;DHT22;30569;51.252;9.830;2023-03-14T02:05:26;9.40;99.90
44833;DHT22;30569;51.252;9.830;2023-03-14T02:07:57;9.40;99.90
44833;DHT22;30569;51.252;9.830;2023-03-14T02:10:36;9.40;99.90
44833;DHT22;30569;51.252;9.830;2023-03-14T02:13:04;9.30;99.90
44833;DHT22;30569;51.252;9.830;2023-03-14T02:15:30;9.40;99.90
44833;DHT22;30569;51.252;9.830;2023-03-14T02:17:56;9.80;99.90
44833;DHT22;30569;51.252;9.830;2023-03-14T02:20:38;9.60;99.90
44833;DHT22;30569;51.252;9.830;2023-03-14T02:23:10;9.20;99.90
44833;DHT22;30569;51.252;9.830;2023-03-14T02:25:47;9.40;99.90
44833;DHT22;30569;51.252;9.830;2023-03-14T02:28:16;9.40;99.90
44833;DHT22;30569;51.252;9.830;2023-03-14T02:30:43;9.90;99.90
44833;DHT22;30569;51.252;9.830;2023-03-14T02:33:14;9.50;99.90
44833;DHT22;30569;51.252;9.830;2023-03-14T02:35:51;9.40;99.90
44833;DHT22;30569;51.252;9.830;2023-03-14T02:40:50;9.40;99.90
44833;DHT22;30569;51.252;9.830;2023-03-14T02:43:16;9.30;99.90
44833;DHT22;30569;51.252;9.830;2023-03-14T02:45:49;9.70;99.90
44833;DHT22;30569;51.252;9.830;2023-03-14T02:48:19;9.30;99.90
44833;DHT22;30569;51.252;9.830;2023-03-14T02:50:47;9.40;99.90
44833;DHT22;30569;51.252;9.830;2023-03-14T02:53:17;9.40;99.90
44833;DHT22;30569;51.252;9.830;2023-03-14T02:55:50;9.30;99.90
44833;DHT22;30569;51.252;9.830;2023-03-14T03:10:27;9.50;99.90
44833;DHT22;30569;51.252;9.830;2023-03-14T03:22:38;9.40;99.90
44833;DHT22;30569;51.252;9.830;2023-03-14T03:25:05;9.70;99.90
44833;DHT22;30569;51.252;9.830;2023-03-14T03:27:32;9.50;99.90
44833;DHT22;30569;51.252;9.830;2023-03-14T03:32:24;9.60;99.90
44833;DHT22;30569;51.252;9.830;2023-03-14T03:34:49;9.30;99.90
44833;DHT22;30569;51.252;9.830;2023-03-14T03:37:15;9.30;99.90
44833;DHT22;30569;51.252;9.830;2023-03-14T03:39:41;9.60;99.90
44833;DHT22;30569;51.252;9.830;2023-03-14T03:42:06;9.60;99.90
44833;DHT22;30569;51.252;9.830;2023-03-14T03:51:50;9.80;99.90
44833;DHT22;30569;51.252;9.830;2023-03-14T03:54:15;9.60;99.90
44833;DHT22;30569;51.252;9.830;2023-03-14T03:56:41;9.80;99.90
44833;DHT22;30569;51.252;9.830;2023-03-14T03:59:06;9.10;99.90
44833;DHT22;30569;51.252;9.830;2023-03-14T04:16:22;9.70;99.90
44833;DHT22;30569;51.252;9.830;2023-03-14T04:35:53;9.40;99.90
44833;DHT22;30569;51.252;9.830;2023-03-14T04:45:41;9.50;99.90
44833;DHT22;30569;51.252;9.830;2023-03-14T04:55:24;9.20;99.90
44833;DHT22;30569;51.252;9.830;2023-03-14T05:05:11;9.50;99.90
44833;DHT22;30569;51.252;9.830;2023-03-14T05:07:36;9.20;99.90
44833;DHT22;30569;51.252;9.830;2023-03-14T05:10:02;9.60;99.90
44833;DHT22;30569;51.252;9.830;2023-03-14T05:27:04;9.10;99.90
44833;DHT22;30569;51.252;9.830;2023-03-14T05:31:57;9.30;99.90
44833;DHT22;30569;51.252;9.830;2023-03-14T05:41:40;8.90;99.90
44833;DHT22;30569;51.252;9.830;2023-03-14T05:53:50;8.80;99.90
44833;DHT22;30569;51.252;9.830;2023-03-14T06:01:08;8.80;99.90
44833;DHT22;30569;51.252;9.830;2023-03-14T06:06:00;9.10;99.90
44833;DHT22;30569;51.252;9.830;2023-03-14T06:08:27;9.00;99.90
44833;DHT22;30569;51.252;9.830;2023-03-14T06:10:53;9.10;99.90
44833;DHT22;30569;51.252;9.830;2023-03-14T06:18:11;9.10;99.90
44833;DHT22;30569;51.252;9.830;2023-03-14T06:20:38;9.00;99.90
44833;DHT22;30569;51.252;9.830;2023-03-14T06:25:34;9.10;99.90
44833;DHT22;30569;51.252;9.830;2023-03-14T06:28:00;9.00;99.90
44833;DHT22;30569;51.252;9.830;2023-03-14T06:30:26;9.30;99.90
44833;DHT22;30569;51.252;9.830;2023-03-14T06:32:51;8.90;99.90
44833;DHT22;30569;51.252;9.830;2023-03-14T06:35:17;9.40;99.90
44833;DHT22;30569;51.252;9.830;2023-03-14T06:40:10;8.90;99.90
44833;DHT22;30569;51.252;9.830;2023-03-14T06:42:36;8.70;99.90
44833;DHT22;30569;51.252;9.830;2023-03-14T06:45:01;8.90;99.90
44833;DHT22;30569;51.252;9.830;2023-03-14T06:47:28;9.10;99.90
44833;DHT22;30569;51.252;9.830;2023-03-14T06:49:54;9.30;99.90
44833;DHT22;30569;51.252;9.830;2023-03-14T06:52:19;9.20;99.90
44833;DHT22;30569;51.252;9.830;2023-03-14T06:54:45;9.10;99.90
44833;DHT22;30569;51.252;9.830;2023-03-14T07:14:12;9.10;99.90
44833;DHT22;30569;51.252;9.830;2023-03-14T07:16:38;9.20;99.90
44833;DHT22;30569;51.252;9.830;2023-03-14T07:19:03;9.30;99.90
44833;DHT22;30569;51.252;9.830;2023-03-14T07:21:29;9.70;99.90
44833;DHT22;30569;51.252;9.830;2023-03-14T07:23:55;9.40;99.90
44833;DHT22;30569;51.252;9.830;2023-03-14T07:26:20;9.30;99.90
44833;DHT22;30569;51.252;9.830;2023-03-14T07:28:46;9.20;99.90
44833;DHT22;30569;51.252;9.830;2023-03-14T07:31:12;9.40;99.90
44833;DHT22;30569;51.252;9.830;2023-03-14T07:33:37;9.70;99.90
44833;DHT22;30569;51.252;9.830;2023-03-14T07:36:03;9.40;99.90
44833;DHT22;30569;51.252;9.830;2023-03-14T07:38:29;9.40;99.90
44833;DHT22;30569;51.252;9.830;2023-03-14T07:40:59;9.70;99.90
44833;DHT22;30569;51.252;9.830;2023-03-14T07:43:25;9.60;99.90
44833;DHT22;30569;51.252;9.830;2023-03-14T07:45:51;9.60;99.90
44833;DHT22;30569;51.252;9.830;2023-03-14T07:48:17;9.60;99.90
44833;DHT22;30569;51.252;9.830;2023-03-14T07:50:42;9.60;99.90
44833;DHT22;30569;51.252;9.830;2023-03-14T07:53:08;9.80;99.90
44833;DHT22;30569;51.252;9.830;2023-03-14T07:55:33;9.70;99.90
44833;DHT22;30569;51.252;9.830;2023-03-14T07:57:59;9.70;99.90
44833;DHT22;30569;51.252;9.830;2023-03-14T08:00:25;9.40;99.90
44833;DHT22;30569;51.252;9.830;2023-03-14T08:02:50;9.20;99.90
44833;DHT22;30569;51.252;9.830;2023-03-14T08:07:42;9.30;99.90
44833;DHT22;30569;51.252;9.830;2023-03-14T08:10:08;9.70;99.90
44833;DHT22;30569;51.252;9.830;2023-03-14T08:12:34;9.40;99.90
44833;DHT22;30569;51.252;9.830;2023-03-14T08:14:59;9.20;99.90
44833;DHT22;30569;51.252;9.830;2023-03-14T08:17:25;9.20;99.90
44833;DHT22;30569;51.252;9.830;2023-03-14T08:19:51;9.50;99.90
44833;DHT22;30569;51.252;9.830;2023-03-14T08:22:16;9.50;99.90
44833;DHT22;30569;51.252;9.830;2023-03-14T08:24:42;9.90;99.90
44833;DHT22;30569;51.252;9.830;2023-03-14T08:27:08;9.30;99.90
44833;DHT22;30569;51.252;9.830;2023-03-14T08:29:33;9.30;99.90
44833;DHT22;30569;51.252;9.830;2023-03-14T08:31:59;9.40;99.90
44833;DHT22;30569;51.252;9.830;2023-03-14T08:39:17;9.40;99.90
44833;DHT22;30569;51.252;9.830;2023-03-14T08:44:10;9.70;99.90
44833;DHT22;30569;51.252;9.830;2023-03-14T08:46:37;9.90;99.90
44833;DHT22;30569;51.252;9.830;2023-03-14T08:49:03;9.80;99.90
44833;DHT22;30569;51.252;9.830;2023-03-14T08:51:29;9.80;99.90
44833;DHT22;30569;51.252;9.830;2023-03-14T08:53:55;10.00;99.90
44833;DHT22;30569;51.252;9.830;2023-03-14T08:58:46;10.00;99.90
44833;DHT22;30569;51.252;9.830;2023-03-14T09:01:12;10.20;99.90
44833;DHT22;30569;51.252;9.830;2023-03-14T09:03:38;10.30;99.90
44833;DHT22;30569;51.252;9.830;2023-03-14T09:06:08;10.70;99.90
44833;DHT22;30569;51.252;9.830;2023-03-14T09:08:34;10.40;99.90
44833;DHT22;30569;51.252;9.830;2023-03-14T09:11:00;10.00;99.90
44833;DHT22;30569;51.252;9.830;2023-03-14T09:13:26;10.10;99.90
44833;DHT22;30569;51.252;9.830;2023-03-14T09:15:52;10.30;99.90
44833;DHT22;30569;51.252;9.830;2023-03-14T09:18:18;10.20;99.90
44833;DHT22;30569;51.252;9.830;2023-03-14T09:20:44;10.50;99.90
44833;DHT22;30569;51.252;9.830;2023-03-14T09:23:09;10.50;99.90
44833;DHT22;30569;51.252;9.830;2023-03-14T09:25:35;10.60;99.90
44833;DHT22;30569;51.252;9.830;2023-03-14T09:28:00;10.60;99.90
44833;DHT22;30569;51.252;9.830;2023-03-14T09:30:26;10.50;99.90
44833;DHT22;30569;51.252;9.830;2023-03-14T09:32:52;10.00;99.90
44833;DHT22;30569;51.252;9.830;2023-03-14T09:35:17;9.90;99.90
44833;DHT22;30569;51.252;9.830;2023-03-14T09:40:13;10.30;99.90
44833;DHT22;30569;51.252;9.830;2023-03-14T09:42:39;10.30;99.90
44833;DHT22;30569;51.252;9.830;2023-03-14T09:45:11;10.10;99.90
44833;DHT22;30569;51.252;9.830;2023-03-14T09:47:39;10.30;99.90
44833;DHT22;30569;51.252;9.830;2023-03-14T09:50:10;10.20;99.90
44833;DHT22;30569;51.252;9.830;2023-03-14T09:52:38;10.30;99.90
44833;DHT22;30569;51.252;9.830;2023-03-14T09:55:11;10.50;99.90
44833;DHT22;30569;51.252;9.830;2023-03-14T09:57:39;10.60;99.90
44833;DHT22;30569;51.252;9.830;2023-03-14T10:00:27;11.10;99.90
44833;DHT22;30569;51.252;9.830;2023-03-14T10:02:56;11.30;99.90
44833;DHT22;30569;51.252;9.830;2023-03-14T10:05:24;11.20;99.90
44833;DHT22;30569;51.252;9.830;2023-03-14T10:07:50;11.10;99.90
44833;DHT22;30569;51.252;9.830;2023-03-14T10:10:24;10.70;99.90
44833;DHT22;30569;51.252;9.830;2023-03-14T10:13:25;10.70;99.90
44833;DHT22;30569;51.252;9.830;2023-03-14T10:16:04;10.80;99.90
44833;DHT22;30569;51.252;9.830;2023-03-14T10:18:31;10.80;99.90
44833;DHT22;30569;51.252;9.830;2023-03-14T10:21:25;10.50;99.90
44833;DHT22;30569;51.252;9.830;2023-03-14T10:23:52;10.30;99.90
44833;DHT22;30569;51.252;9.830;2023-03-14T10:26:24;10.40;99.90
44833;DHT22;30569;51.252;9.830;2023-03-14T10:28:53;10.70;99.90
44833;DHT22;30569;51.252;9.830;2023-03-14T10:31:24;11.00;99.90
44833;DHT22;30569;51.252;9.830;2023-03-14T10:34:03;11.30;99.90
44833;DHT22;30569;51.252;9.830;2023-03-14T10:36:31;11.10;99.90
44833;DHT22;30569;51.252;9.830;2023-03-14T10:39:18;10.90;99.90
44833;DHT22;30569;51.252;9.830;2023-03-14T10:41:50;10.90;99.90
44833;DHT22;30569;51.252;9.830;2023-03-14T10:44:21;10.90;99.90
44833;DHT22;30569;51.252;9.830;2023-03-14T10:46:59;11.00;99.90
44833;DHT22;30569;51.252;9.830;2023-03-14T10:49:36;10.90;99.90
44833;DHT22;30569;51.252;9.830;2023-03-14T10:52:25;11.30;99.90
44833;DHT22;30569;51.252;9.830;2023-03-14T10:54:59;11.20;99.90
44833;DHT22;30569;51.252;9.830;2023-03-14T10:57:26;11.50;99.90
44833;DHT22;30569;51.252;9.830;2023-03-14T10:59:53;11.80;99.90
44833;DHT22;30569;51.252;9.830;2023-03-14T11:02:34;12.00;99.90
44833;DHT22;30569;51.252;9.830;2023-03-14T11:07:46;12.00;99.90
44833;DHT22;30569;51.252;9.830;2023-03-14T11:16:22;11.40;99.90
44833;DHT22;30569;51.252;9.830;2023-03-14T11:22:05;11.40;99.90
44833;DHT22;30569;51.252;9.830;2023-03-14T11:24:47;11.70;99.90
44833;DHT22;30569;51.252;9.830;2023-03-14T11:29:57;11.70;99.90
44833;DHT22;30569;51.252;9.830;2023-03-14T11:32:46;11.20;99.90
44833;DHT22;30569;51.252;9.830;2023-03-14T11:35:30;11.50;99.90
44833;DHT22;30569;51.252;9.830;2023-03-14T11:38:12;11.70;99.90
44833;DHT22;30569;51.252;9.830;2023-03-14T11:40:38;11.60;99.90
44833;DHT22;30569;51.252;9.830;2023-03-14T11:51:24;11.70;99.90
44833;DHT22;30569;51.252;9.830;2023-03-14T11:54:18;11.70;99.90
44833;DHT22;30569;51.252;9.830;2023-03-14T11:56:57;11.50;99.90
44833;DHT22;30569;51.252;9.830;2023-03-14T11:59:29;11.70;99.90
44833;DHT22;30569;51.252;9.830;2023-03-14T12:02:05;11.60;99.90
44833;DHT22;30569;51.252;9.830;2023-03-14T12:07:21;11.30;99.90
44833;DHT22;30569;51.252;9.830;2023-03-14T12:09:49;11.30;99.90
44833;DHT22;30569;51.252;9.830;2023-03-14T12:12:22;11.40;99.90
44833;DHT22;30569;51.252;9.830;2023-03-14T12:15:00;11.40;99.90
44833;DHT22;30569;51.252;9.830;2023-03-14T12:17:40;11.50;99.90
44833;DHT22;30569;51.252;9.830;2023-03-14T12:22:48;11.00;99.90
44833;DHT22;30569;51.252;9.830;2023-03-14T12:25:28;11.20;99.90
44833;DHT22;30569;51.252;9.830;2023-03-14T12:35:57;10.50;99.90
44833;DHT22;30569;51.252;9.830;2023-03-14T12:41:38;10.80;99.90
44833;DHT22;30569;51.252;9.830;2023-03-14T12:52:36;9.30;99.90
44833;DHT22;30569;51.252;9.830;2023-03-14T13:00:59;9.40;99.90
44833;DHT22;30569;51.252;9.830;2023-03-14T13:03:38;9.30;99.90
44833;DHT22;30569;51.252;9.830;2023-03-14T13:06:04;9.40;99.90
44833;DHT22;30569;51.252;9.830;2023-03-14T13:08:39;9.50;99.90
44833;DHT22;30569;51.252;9.830;2023-03-14T13:11:24;9.10;99.90
44833;DHT22;30569;51.252;9.830;2023-03-14T13:13:56;9.10;99.90
44833;DHT22;30569;51.252;9.830;2023-03-14T13:16:23;9.00;99.90
44833;DHT22;30569;51.252;9.830;2023-03-14T13:21:35;9.10;99.90
44833;DHT22;30569;51.252;9.830;2023-03-14T13:24:07;8.90;99.90
44833;DHT22;30569;51.252;9.830;2023-03-14T13:26:44;8.70;99.90
44833;DHT22;30569;51.252;9.830;2023-03-14T13:31:47;8.40;99.90
44833;DHT22;30569;51.252;9.830;2023-03-14T13:39:20;7.60;99.90
44833;DHT22;30569;51.252;9.830;2023-03-14T13:41:50;7.60;99.90
44833;DHT22;30569;51.252;9.830;2023-03-14T13:44:39;7.40;99.90
44833;DHT22;30569;51.252;9.830;2023-03-14T13:47:05;7.10;99.90
44833;DHT22;30569;51.252;9.830;2023-03-14T13:49:33;7.20;99.90
44833;DHT22;30569;51.252;9.830;2023-03-14T13:52:01;6.80;99.90
44833;DHT22;30569;51.252;9.830;2023-03-14T13:54:27;6.60;99.90
44833;DHT22;30569;51.252;9.830;2023-03-14T13:57:04;6.40;99.90
44833;DHT22;30569;51.252;9.830;2023-03-14T13:59:32;6.00;99.90
44833;DHT22;30569;51.252;9.830;2023-03-14T14:02:03;6.10;99.90
44833;DHT22;30569;51.252;9.830;2023-03-14T14:04:32;6.00;99.90
44833;DHT22;30569;51.252;9.830;2023-03-14T14:07:05;5.70;99.90
44833;DHT22;30569;51.252;9.830;2023-03-14T14:09:52;5.80;99.90
44833;DHT22;30569;51.252;9.830;2023-03-14T14:12:32;5.40;99.90
44833;DHT22;30569;51.252;9.830;2023-03-14T14:15:02;5.90;99.90
44833;DHT22;30569;51.252;9.830;2023-03-14T14:17:36;5.50;99.90
44833;DHT22;30569;51.252;9.830;2023-03-14T14:20:06;5.40;99.90
44833;DHT22;30569;51.252;9.830;2023-03-14T14:24:59;5.70;99.90
44833;DHT22;30569;51.252;9.830;2023-03-14T14:27:38;5.30;99.90
44833;DHT22;30569;51.252;9.830;2023-03-14T14:32:44;5.50;99.90
44833;DHT22;30569;51.252;9.830;2023-03-14T14:35:21;5.80;99.90
44833;DHT22;30569;51.252;9.830;2023-03-14T14:37:48;6.10;99.90
44833;DHT22;30569;51.252;9.830;2023-03-14T14:40:25;5.80;99.90
44833;DHT22;30569;51.252;9.830;2023-03-14T14:42:52;5.60;99.90
44833;DHT22;30569;51.252;9.830;2023-03-14T14:47:58;5.20;99.90
44833;DHT22;30569;51.252;9.830;2023-03-14T14:53:16;5.10;99.90
44833;DHT22;30569;51.252;9.830;2023-03-14T14:55:44;5.30;99.90
44833;DHT22;30569;51.252;9.830;2023-03-14T14:58:23;5.60;99.90
44833;DHT22;30569;51.252;9.830;2023-03-14T15:06:02;5.70;99.90
44833;DHT22;30569;51.252;9.830;2023-03-14T15:08:28;5.80;99.90
44833;DHT22;30569;51.252;9.830;2023-03-14T15:10:55;6.20;99.90
44833;DHT22;30569;51.252;9.830;2023-03-14T15:15:49;5.60;99.90
44833;DHT22;30569;51.252;9.830;2023-03-14T15:18:21;5.20;99.90
44833;DHT22;30569;51.252;9.830;2023-03-14T15:20:47;5.50;99.90
44833;DHT22;30569;51.252;9.830;2023-03-14T15:23:15;5.10;99.90
44833;DHT22;30569;51.252;9.830;2023-03-14T15:25:42;5.10;99.90
44833;DHT22;30569;51.252;9.830;2023-03-14T15:28:21;5.40;99.90
44833;DHT22;30569;51.252;9.830;2023-03-14T15:30:49;5.70;99.90
44833;DHT22;30569;51.252;9.830;2023-03-14T15:33:15;5.70;99.90
44833;DHT22;30569;51.252;9.830;2023-03-14T15:38:11;5.40;99.90
44833;DHT22;30569;51.252;9.830;2023-03-14T15:43:04;5.80;99.90
44833;DHT22;30569;51.252;9.830;2023-03-14T15:45:30;5.00;99.90
44833;DHT22;30569;51.252;9.830;2023-03-14T15:52:48;4.20;99.90
44833;DHT22;30569;51.252;9.830;2023-03-14T15:55:14;4.40;99.90
44833;DHT22;30569;51.252;9.830;2023-03-14T15:57:43;4.50;99.90
44833;DHT22;30569;51.252;9.830;2023-03-14T16:00:15;4.40;99.90
44833;DHT22;30569;51.252;9.830;2023-03-14T16:02:41;4.60;99.90
44833;DHT22;30569;51.252;9.830;2023-03-14T16:05:11;4.80;99.90
44833;DHT22;30569;51.252;9.830;2023-03-14T16:07:37;4.90;99.90
44833;DHT22;30569;51.252;9.830;2023-03-14T16:10:03;4.70;99.90
44833;DHT22;30569;51.252;9.830;2023-03-14T16:12:29;4.70;99.90
44833;DHT22;30569;51.252;9.830;2023-03-14T16:17:20;4.40;99.90
44833;DHT22;30569;51.252;9.830;2023-03-14T16:24:38;5.00;99.90
44833;DHT22;30569;51.252;9.830;2023-03-14T16:29:30;5.00;99.90
44833;DHT22;30569;51.252;9.830;2023-03-14T16:31:56;5.20;99.90
44833;DHT22;30569;51.252;9.830;2023-03-14T16:34:21;4.60;99.90
44833;DHT22;30569;51.252;9.830;2023-03-14T16:36:47;4.80;99.90
44833;DHT22;30569;51.252;9.830;2023-03-14T16:39:16;5.10;99.90
44833;DHT22;30569;51.252;9.830;2023-03-14T16:41:42;5.30;99.90
44833;DHT22;30569;51.252;9.830;2023-03-14T16:49:01;5.50;99.90
44833;DHT22;30569;51.252;9.830;2023-03-14T16:53:52;4.70;99.90
44833;DHT22;30569;51.252;9.830;2023-03-14T16:56:18;4.50;99.90
44833;DHT22;30569;51.252;9.830;2023-03-14T16:58:44;4.80;99.90
44833;DHT22;30569;51.252;9.830;2023-03-14T17:01:12;4.30;99.90
44833;DHT22;30569;51.252;9.830;2023-03-14T17:03:42;4.50;99.90
44833;DHT22;30569;51.252;9.830;2023-03-14T17:06:11;4.70;99.90
44833;DHT22;30569;51.252;9.830;2023-03-14T17:08:38;4.60;99.90
44833;DHT22;30569;51.252;9.830;2023-03-14T17:11:04;5.30;99.90
44833;DHT22;30569;51.252;9.830;2023-03-14T17:13:29;5.90;99.90
44833;DHT22;30569;51.252;9.830;2023-03-14T17:15:57;5.20;99.90
44833;DHT22;30569;51.252;9.830;2023-03-14T17:18:24;5.10;99.90
44833;DHT22;30569;51.252;9.830;2023-03-14T17:20:51;5.10;99.90
44833;DHT22;30569;51.252;9.830;2023-03-14T17:23:16;5.30;99.90
44833;DHT22;30569;51.252;9.830;2023-03-14T17:25:42;4.90;99.90
44833;DHT22;30569;51.252;9.830;2023-03-14T17:28:10;4.50;99.90
44833;DHT22;30569;51.252;9.830;2023-03-14T17:30:35;4.90;99.90
44833;DHT22;30569;51.252;9.830;2023-03-14T17:33:01;4.60;99.90
44833;DHT22;30569;51.252;9.830;2023-03-14T17:35:26;4.70;99.90
44833;DHT22;30569;51.252;9.830;2023-03-14T17:40:18;4.60;99.90
44833;DHT22;30569;51.252;9.830;2023-03-14T17:42:44;4.80;99.90
44833;DHT22;30569;51.252;9.830;2023-03-14T17:45:09;4.60;99.90
44833;DHT22;30569;51.252;9.830;2023-03-14T17:47:35;4.70;99.90
44833;DHT22;30569;51.252;9.830;2023-03-14T17:50:01;4.90;99.90
44833;DHT22;30569;51.252;9.830;2023-03-14T17:52:30;5.00;99.90
44833;DHT22;30569;51.252;9.830;2023-03-14T17:54:56;4.50;99.90
44833;DHT22;30569;51.252;9.830;2023-03-14T17:59:48;4.80;99.90
44833;DHT22;30569;51.252;9.830;2023-03-14T18:02:13;4.60;99.90
44833;DHT22;30569;51.252;9.830;2023-03-14T18:04:39;4.30;99.90
44833;DHT22;30569;51.252;9.830;2023-03-14T18:07:05;4.70;99.90
44833;DHT22;30569;51.252;9.830;2023-03-14T18:09:30;4.30;99.90
44833;DHT22;30569;51.252;9.830;2023-03-14T18:11:56;3.90;99.90
44833;DHT22;30569;51.252;9.830;2023-03-14T18:14:21;3.20;99.90
44833;DHT22;30569;51.252;9.830;2023-03-14T18:16:47;3.60;99.90
44833;DHT22;30569;51.252;9.830;2023-03-14T18:19:15;3.80;99.90
44833;DHT22;30569;51.252;9.830;2023-03-14T18:21:41;3.70;99.90
44833;DHT22;30569;51.252;9.830;2023-03-14T18:24:07;4.00;99.90
44833;DHT22;30569;51.252;9.830;2023-03-14T18:26:33;4.00;99.90
44833;DHT22;30569;51.252;9.830;2023-03-14T18:28:58;3.80;99.90
44833;DHT22;30569;51.252;9.830;2023-03-14T18:31:25;4.40;99.90
44833;DHT22;30569;51.252;9.830;2023-03-14T18:33:51;3.40;99.90
44833;DHT22;30569;51.252;9.830;2023-03-14T18:36:20;3.70;99.90
44833;DHT22;30569;51.252;9.830;2023-03-14T18:41:17;3.80;99.90
44833;DHT22;30569;51.252;9.830;2023-03-14T18:43:44;3.40;99.90
44833;DHT22;30569;51.252;9.830;2023-03-14T18:46:11;3.70;99.90
44833;DHT22;30569;51.252;9.830;2023-03-14T18:48:37;3.90;99.90
44833;DHT22;30569;51.252;9.830;2023-03-14T18:51:08;3.80;99.90
44833;DHT22;30569;51.252;9.830;2023-03-14T18:53:33;4.40;99.90
44833;DHT22;30569;51.252;9.830;2023-03-14T18:56:01;4.10;99.90
44833;DHT22;30569;51.252;9.830;2023-03-14T18:58:27;4.10;99.90
44833;DHT22;30569;51.252;9.830;2023-03-14T19:00:58;4.40;99.90
44833;DHT22;30569;51.252;9.830;2023-03-14T19:03:23;4.10;99.90
44833;DHT22;30569;51.252;9.830;2023-03-14T19:05:56;3.60;99.90
44833;DHT22;30569;51.252;9.830;2023-03-14T19:08:23;3.50;99.90
44833;DHT22;30569;51.252;9.830;2023-03-14T19:10:49;3.20;99.90
44833;DHT22;30569;51.252;9.830;2023-03-14T19:13:16;3.60;99.90
44833;DHT22;30569;51.252;9.830;2023-03-14T19:20:36;3.20;99.90
44833;DHT22;30569;51.252;9.830;2023-03-14T19:23:02;3.00;99.90
44833;DHT22;30569;51.252;9.830;2023-03-14T19:25:27;3.10;99.90
44833;DHT22;30569;51.252;9.830;2023-03-14T19:27:53;3.20;99.90
44833;DHT22;30569;51.252;9.830;2023-03-14T19:35:12;2.90;99.90
44833;DHT22;30569;51.252;9.830;2023-03-14T19:37:38;2.90;99.90
44833;DHT22;30569;51.252;9.830;2023-03-14T19:40:05;2.90;99.90
44833;DHT22;30569;51.252;9.830;2023-03-14T19:42:33;2.80;99.90
44833;DHT22;30569;51.252;9.830;2023-03-14T19:47:24;3.40;99.90
44833;DHT22;30569;51.252;9.830;2023-03-14T19:54:43;3.90;99.90
44833;DHT22;30569;51.252;9.830;2023-03-14T19:57:11;3.70;99.90
44833;DHT22;30569;51.252;9.830;2023-03-14T19:59:37;3.60;99.90
44833;DHT22;30569;51.252;9.830;2023-03-14T20:02:02;3.70;99.90
44833;DHT22;30569;51.252;9.830;2023-03-14T20:06:54;3.60;99.90
44833;DHT22;30569;51.252;9.830;2023-03-14T20:09:20;3.90;99.90
44833;DHT22;30569;51.252;9.830;2023-03-14T20:14:12;3.30;99.90
44833;DHT22;30569;51.252;9.830;2023-03-14T20:16:41;3.90;99.90
44833;DHT22;30569;51.252;9.830;2023-03-14T20:19:09;4.00;99.90
44833;DHT22;30569;51.252;9.830;2023-03-14T20:21:34;3.90;99.90
44833;DHT22;30569;51.252;9.830;2023-03-14T20:24:00;3.50;99.90
44833;DHT22;30569;51.252;9.830;2023-03-14T20:26:27;3.20;99.90
44833;DHT22;30569;51.252;9.830;2023-03-14T20:28:53;3.10;99.90
44833;DHT22;30569;51.252;9.830;2023-03-14T20:31:19;3.50;99.90
44833;DHT22;30569;51.252;9.830;2023-03-14T20:33:44;3.40;99.90
44833;DHT22;30569;51.252;9.830;2023-03-14T20:36:10;3.10;99.90
44833;DHT22;30569;51.252;9.830;2023-03-14T20:38:36;3.30;99.90
44833;DHT22;30569;51.252;9.830;2023-03-14T20:41:02;3.30;99.90
44833;DHT22;30569;51.252;9.830;2023-03-14T20:43:30;2.90;99.90
44833;DHT22;30569;51.252;9.830;2023-03-14T20:45:57;2.80;99.90
44833;DHT22;30569;51.252;9.830;2023-03-14T20:48:25;3.30;99.90
44833;DHT22;30569;51.252;9.830;2023-03-14T20:50:51;3.00;99.90
44833;DHT22;30569;51.252;9.830;2023-03-14T20:53:17;2.80;99.90
44833;DHT22;30569;51.252;9.830;2023-03-14T21:00:48;2.30;99.90
44833;DHT22;30569;51.252;9.830;2023-03-14T21:03:16;2.20;99.90
44833;DHT22;30569;51.252;9.830;2023-03-14T21:05:44;2.50;99.90
44833;DHT22;30569;51.252;9.830;2023-03-14T21:08:11;2.60;99.90
44833;DHT22;30569;51.252;9.830;2023-03-14T21:10:37;2.60;99.90
44833;DHT22;30569;51.252;9.830;2023-03-14T21:13:03;2.60;99.90
44833;DHT22;30569;51.252;9.830;2023-03-14T21:17:54;3.10;99.90
44833;DHT22;30569;51.252;9.830;2023-03-14T21:20:20;2.90;99.90
44833;DHT22;30569;51.252;9.830;2023-03-14T21:22:46;2.60;99.90
44833;DHT22;30569;51.252;9.830;2023-03-14T21:25:11;2.70;99.90
44833;DHT22;30569;51.252;9.830;2023-03-14T21:27:39;2.30;99.90
44833;DHT22;30569;51.252;9.830;2023-03-14T21:30:05;2.50;99.90
44833;DHT22;30569;51.252;9.830;2023-03-14T21:34:57;2.50;99.90
44833;DHT22;30569;51.252;9.830;2023-03-14T21:37:23;2.60;99.90
44833;DHT22;30569;51.252;9.830;2023-03-14T21:39:51;2.20;99.90
44833;DHT22;30569;51.252;9.830;2023-03-14T21:47:13;2.30;99.90
44833;DHT22;30569;51.252;9.830;2023-03-14T21:49:40;2.30;99.90
44833;DHT22;30569;51.252;9.830;2023-03-14T21:52:07;2.20;99.90
44833;DHT22;30569;51.252;9.830;2023-03-14T21:54:33;2.20;99.90
44833;DHT22;30569;51.252;9.830;2023-03-14T21:56:59;2.30;99.90
44833;DHT22;30569;51.252;9.830;2023-03-14T22:33:35;1.90;99.90
44833;DHT22;30569;51.252;9.830;2023-03-14T22:38:26;1.80;99.90
44833;DHT22;30569;51.252;9.830;2023-03-14T22:50:37;1.70;99.90
44833;DHT22;30569;51.252;9.830;2023-03-14T23:05:15;1.40;99.90
44833;DHT22;30569;51.252;9.830;2023-03-14T23:10:07;1.30;99.90